Time;durP1;ratioP1;P1;durP2;ratioP2;P2;SDS_P1;SDS_P2;PMS_P1;PMS_P2;Temp;Humidity;BMP_temperature;BMP_pressure;BME280_temperature;BME280_humidity;BME280_pressure;Samples;Min_cycle;Max_cycle;Signal;HPM_P1;HPM_P2
2021/12/19 00:02:04;;;;;;;5.00;3.43;;;-1.60;99.90;;;;;;5066010;28;20488;-49
2021/12/19 00:04:38;;;;;;;5.30;3.23;;;-1.60;99.90;;;;;;5062210;28;20438;-50
2021/12/19 00:09:50;;;;;;;2.93;2.07;;;-2.00;99.90;;;;;;5063447;28;20441;-49
2021/12/19 00:12:17;;;;;;;2.20;1.73;;;-2.60;99.90;;;;;;5066053;28;20547;-49
2021/12/19 00:14:45;;;;;;;1.60;1.50;;;-2.50;99.90;;;;;;5068327;28;20971;-49
2021/12/19 00:17:12;;;;;;;2.53;2.00;;;-2.30;99.90;;;;;;5065400;28;20552;-51
2021/12/19 00:19:39;;;;;;;2.13;1.93;;;-2.20;99.90;;;;;;5064241;28;20535;-50
2021/12/19 00:22:06;;;;;;;3.73;2.63;;;-2.00;99.90;;;;;;5067596;28;20884;-49
2021/12/19 00:24:33;;;;;;;2.97;2.60;;;-2.00;99.90;;;;;;5066652;28;20449;-49
2021/12/19 00:27:00;;;;;;;4.33;2.93;;;-1.90;99.90;;;;;;5065630;28;20567;-49
2021/12/19 00:29:27;;;;;;;3.10;2.63;;;-1.80;99.90;;;;;;5069132;28;20799;-49
2021/12/19 00:31:55;;;;;;;3.00;1.93;;;-1.80;99.90;;;;;;5066386;28;20840;-50
2021/12/19 00:34:23;;;;;;;3.27;2.13;;;-1.80;99.90;;;;;;5063417;28;20840;-49
2021/12/19 00:36:50;;;;;;;2.80;2.13;;;-1.80;99.90;;;;;;5058718;28;20542;-49
2021/12/19 00:39:17;;;;;;;3.27;2.00;;;-1.70;99.90;;;;;;5066790;28;20523;-49
2021/12/19 00:41:44;;;;;;;2.10;1.97;;;-1.70;99.90;;;;;;5066202;28;20492;-49
2021/12/19 00:44:14;;;;;;;3.23;1.93;;;-1.70;99.90;;;;;;5068149;28;20519;-51
2021/12/19 00:46:48;;;;;;;1.93;1.73;;;-1.70;99.90;;;;;;5060488;28;20453;-49
2021/12/19 00:49:17;;;;;;;3.43;2.10;;;-1.70;99.90;;;;;;5065588;28;20437;-50
2021/12/19 00:51:44;;;;;;;1.90;1.60;;;-1.60;99.90;;;;;;5066799;28;20522;-49
2021/12/19 00:54:11;;;;;;;2.03;1.87;;;-1.70;99.90;;;;;;5064583;28;20884;-49
2021/12/19 00:56:40;;;;;;;1.30;1.23;;;-1.60;99.90;;;;;;5067257;28;20527;-49
2021/12/19 00:59:07;;;;;;;1.50;1.40;;;-1.60;99.90;;;;;;5066722;28;20511;-49
2021/12/19 01:01:36;;;;;;;1.50;1.40;;;-1.60;99.90;;;;;;5064189;28;20563;-50
2021/12/19 01:04:03;;;;;;;1.80;1.40;;;-1.60;99.90;;;;;;5066621;28;20520;-51
2021/12/19 01:06:32;;;;;;;1.17;0.90;;;-1.60;99.90;;;;;;5060066;28;20528;-49
2021/12/19 01:08:59;;;;;;;1.43;1.30;;;-1.50;99.90;;;;;;5064307;28;20907;-47
2021/12/19 01:11:27;;;;;;;1.67;1.50;;;-1.60;99.90;;;;;;5066823;28;20479;-51
2021/12/19 01:13:55;;;;;;;1.43;1.33;;;-1.60;99.90;;;;;;5065299;28;20511;-49
2021/12/19 01:16:22;;;;;;;4.20;2.30;;;-1.80;99.90;;;;;;5064545;28;20461;-49
2021/12/19 01:18:50;;;;;;;1.90;1.23;;;-1.90;99.90;;;;;;5066336;28;20499;-49
2021/12/19 01:21:17;;;;;;;1.17;1.07;;;-1.80;99.90;;;;;;5066124;28;20556;-49
2021/12/19 01:23:45;;;;;;;2.20;1.17;;;-1.80;99.90;;;;;;5064685;28;20533;-50
2021/12/19 01:26:12;;;;;;;1.93;1.03;;;-1.70;99.90;;;;;;5066436;28;20805;-49
2021/12/19 01:28:40;;;;;;;1.67;1.27;;;-1.80;99.90;;;;;;5066469;28;21078;-49
2021/12/19 01:31:07;;;;;;;1.77;1.57;;;-2.10;99.90;;;;;;5065102;28;20938;-50
2021/12/19 01:33:34;;;;;;;2.10;1.90;;;-2.00;99.90;;;;;;5065392;28;20531;-50
2021/12/19 01:36:03;;;;;;;1.63;1.50;;;-2.00;99.90;;;;;;5063652;28;20726;-49
2021/12/19 01:38:31;;;;;;;1.00;0.87;;;-2.10;99.90;;;;;;5064046;28;20541;-49
2021/12/19 01:40:59;;;;;;;1.90;1.70;;;-2.00;99.90;;;;;;5060437;28;20456;-49
2021/12/19 01:43:27;;;;;;;0.90;0.90;;;-1.80;99.90;;;;;;5065844;28;20529;-46
2021/12/19 01:45:55;;;;;;;2.10;1.63;;;-1.70;99.90;;;;;;5066023;28;20461;-50
2021/12/19 01:48:23;;;;;;;2.37;1.50;;;-1.60;99.90;;;;;;5066904;28;20567;-49
2021/12/19 01:50:52;;;;;;;1.47;1.27;;;-1.50;99.90;;;;;;5064379;28;20461;-49
2021/12/19 01:53:20;;;;;;;1.10;0.90;;;-1.40;99.90;;;;;;5061956;28;20988;-49
2021/12/19 01:55:48;;;;;;;1.63;1.10;;;-1.40;99.90;;;;;;5066414;28;20942;-49
2021/12/19 01:58:18;;;;;;;1.60;1.07;;;-1.40;99.90;;;;;;5063655;28;20519;-49
2021/12/19 02:00:47;;;;;;;1.80;1.27;;;-1.40;99.90;;;;;;5065517;28;20547;-50
2021/12/19 02:03:16;;;;;;;1.27;1.00;;;-1.40;99.90;;;;;;5065686;28;20479;-49
2021/12/19 02:05:43;;;;;;;2.03;1.83;;;-1.40;99.90;;;;;;5064652;28;20448;-50
2021/12/19 02:08:11;;;;;;;1.83;1.50;;;-1.40;99.90;;;;;;5061918;28;20578;-48
2021/12/19 02:10:41;;;;;;;0.80;0.77;;;-1.50;99.90;;;;;;5065685;28;20469;-49
2021/12/19 02:13:10;;;;;;;0.77;0.60;;;-1.40;99.90;;;;;;5062426;28;20926;-48
2021/12/19 02:15:40;;;;;;;1.50;1.13;;;-1.50;99.90;;;;;;5066943;28;20441;-50
2021/12/19 02:18:10;;;;;;;5.43;4.33;;;-1.40;99.90;;;;;;5063515;28;20968;-51
2021/12/19 02:20:40;;;;;;;3.33;2.53;;;-1.40;99.90;;;;;;5063934;28;20548;-49
2021/12/19 02:23:09;;;;;;;4.00;2.70;;;-1.50;99.90;;;;;;5065512;28;20494;-50
2021/12/19 02:25:36;;;;;;;2.40;2.13;;;-1.60;99.90;;;;;;5065439;28;20615;-50
2021/12/19 02:28:04;;;;;;;2.60;2.40;;;-2.40;99.90;;;;;;5064369;28;20968;-49
2021/12/19 02:30:31;;;;;;;1.90;1.53;;;-2.50;99.90;;;;;;5065485;28;20548;-52
2021/12/19 02:32:58;;;;;;;2.90;2.40;;;-2.50;99.90;;;;;;5065104;28;20529;-51
2021/12/19 02:35:29;;;;;;;3.80;2.93;;;-2.40;99.90;;;;;;5064524;28;20971;-49
2021/12/19 02:49:24;;;;;;;5.80;4.10;;;-2.40;99.90;;;;;;5057563;28;20557;-49
2021/12/19 02:51:52;;;;;;;5.10;3.97;;;-2.30;99.90;;;;;;5056060;28;20969;-50
2021/12/19 02:54:21;;;;;;;5.33;3.80;;;-2.30;99.90;;;;;;5065384;28;20448;-49
2021/12/19 02:56:48;;;;;;;6.80;4.67;;;-2.20;99.90;;;;;;5056470;28;20483;-50
2021/12/19 02:59:16;;;;;;;7.80;3.93;;;-2.20;99.90;;;;;;5061224;28;20452;-51
2021/12/19 03:01:45;;;;;;;3.93;3.53;;;-2.60;99.90;;;;;;5060089;28;21044;-49
2021/12/19 03:04:12;;;;;;;3.97;3.60;;;-2.60;99.90;;;;;;5055425;28;20611;-49
2021/12/19 03:06:44;;;;;;;4.87;3.47;;;-2.40;99.90;;;;;;5057008;28;20551;-49
2021/12/19 03:09:13;;;;;;;5.23;3.97;;;-2.30;99.90;;;;;;5062386;28;20479;-48
2021/12/19 03:12:05;;;;;;;3.73;3.37;;;-2.10;99.90;;;;;;5055042;28;20474;-51
2021/12/19 03:20:01;;;;;;;3.80;2.80;;;-2.20;99.90;;;;;;5067971;28;20785;-49
2021/12/19 03:22:28;;;;;;;3.03;2.73;;;-2.50;99.90;;;;;;5052706;28;20441;-49
2021/12/19 03:24:55;;;;;;;4.87;3.00;;;-2.70;99.90;;;;;;5065814;28;21009;-49
2021/12/19 03:27:23;;;;;;;3.40;3.03;;;-2.60;99.90;;;;;;5063009;28;20530;-49
2021/12/19 03:29:50;;;;;;;3.60;3.30;;;-2.50;99.90;;;;;;5059793;28;20559;-50
2021/12/19 03:32:17;;;;;;;3.50;3.20;;;-2.30;99.90;;;;;;5070450;28;20976;-50
2021/12/19 03:34:44;;;;;;;3.10;2.30;;;-2.20;99.90;;;;;;5062367;28;20487;-50
2021/12/19 03:37:11;;;;;;;3.50;2.67;;;-2.10;99.90;;;;;;5057791;28;20469;-49
2021/12/19 03:39:55;;;;;;;2.63;2.43;;;-2.00;99.90;;;;;;5066571;28;20487;-49
2021/12/19 03:42:24;;;;;;;6.33;4.70;;;-2.00;99.90;;;;;;5070605;28;20450;-50
2021/12/19 03:44:51;;;;;;;8.63;5.30;;;-2.30;99.90;;;;;;5054522;28;20854;-49
2021/12/19 03:47:18;;;;;;;9.83;6.43;;;-2.20;99.90;;;;;;5069650;28;20480;-50
2021/12/19 03:49:46;;;;;;;11.70;8.20;;;-2.10;99.90;;;;;;5061124;28;20563;-51
2021/12/19 03:52:14;;;;;;;18.43;8.83;;;-2.10;99.90;;;;;;5056343;28;20449;-49
2021/12/19 03:54:41;;;;;;;20.03;11.03;;;-2.00;99.90;;;;;;5064546;28;20906;-48
2021/12/19 03:57:08;;;;;;;17.40;8.87;;;-2.00;99.90;;;;;;5060049;28;20524;-48
2021/12/19 03:59:36;;;;;;;12.60;6.57;;;-1.90;99.90;;;;;;5060727;28;20536;-49
2021/12/19 04:02:04;;;;;;;11.43;5.40;;;-1.90;99.90;;;;;;5066927;28;20504;-50
2021/12/19 04:04:37;;;;;;;5.90;4.10;;;-1.90;99.90;;;;;;5061120;28;20440;-49
2021/12/19 04:07:05;;;;;;;3.70;2.60;;;-1.90;99.90;;;;;;5058282;28;20527;-49
2021/12/19 04:09:32;;;;;;;2.60;2.40;;;-1.80;99.90;;;;;;5065587;28;20563;-51
2021/12/19 04:11:59;;;;;;;3.60;3.20;;;-2.20;99.90;;;;;;5058091;28;20523;-49
2021/12/19 04:14:26;;;;;;;3.17;2.73;;;-2.10;99.90;;;;;;5058105;28;20469;-51
2021/12/19 04:16:54;;;;;;;2.17;1.87;;;-2.00;99.90;;;;;;5065558;28;20640;-49
2021/12/19 04:19:21;;;;;;;2.33;2.00;;;-2.20;99.90;;;;;;5060498;28;20532;-50
2021/12/19 04:21:48;;;;;;;3.30;2.83;;;-2.10;99.90;;;;;;5058456;28;20476;-50
2021/12/19 04:24:15;;;;;;;2.57;2.23;;;-2.10;99.90;;;;;;5063260;28;20448;-51
2021/12/19 04:26:42;;;;;;;2.67;2.00;;;-2.00;99.90;;;;;;5055670;28;20483;-50
2021/12/19 04:29:10;;;;;;;4.77;1.90;;;-2.00;99.90;;;;;;5060805;28;20564;-49
2021/12/19 04:31:37;;;;;;;2.40;1.63;;;-2.00;99.90;;;;;;5062468;28;20490;-48
2021/12/19 04:34:05;;;;;;;2.00;1.60;;;-1.90;99.90;;;;;;5054117;28;20437;-51
2021/12/19 04:36:36;;;;;;;2.30;1.83;;;-1.90;99.90;;;;;;5069621;28;20485;-49
2021/12/19 04:53:17;;;;;;;2.00;1.90;;;-3.10;99.90;;;;;;5053760;28;20425;-49
2021/12/19 04:59:13;;;;;;;5.83;4.50;;;-2.90;99.90;;;;;;5063502;28;20766;-49
2021/12/19 05:02:06;;;;;;;5.23;3.23;;;-2.60;99.90;;;;;;5060422;28;20475;-48
2021/12/19 05:05:06;;;;;;;4.43;2.43;;;-2.50;99.90;;;;;;5064571;28;20445;-51
2021/12/19 05:15:47;;;;;;;4.80;3.93;;;-3.00;99.90;;;;;;5054249;28;20420;-48
2021/12/19 05:18:14;;;;;;;4.63;3.87;;;-2.90;99.90;;;;;;5058063;28;20437;-49
2021/12/19 05:20:51;;;;;;;4.53;3.80;;;-3.20;99.90;;;;;;5061308;28;20552;-49
2021/12/19 05:23:25;;;;;;;3.77;3.37;;;-3.40;99.90;;;;;;5058646;28;20467;-51
2021/12/19 05:25:52;;;;;;;5.83;3.60;;;-3.30;99.90;;;;;;5057655;28;20493;-49
2021/12/19 05:28:19;;;;;;;4.47;2.93;;;-3.00;99.90;;;;;;5062688;28;20487;-49
2021/12/19 05:30:46;;;;;;;5.60;3.30;;;-2.80;99.90;;;;;;5061718;28;20568;-51
2021/12/19 05:33:13;;;;;;;3.40;2.83;;;-2.90;99.90;;;;;;5068694;28;20531;-49
2021/12/19 05:44:15;;;;;;;9.37;5.33;;;-2.40;99.90;;;;;;5069067;28;20854;-49
2021/12/19 05:46:43;;;;;;;6.57;4.07;;;-2.50;99.90;;;;;;5066037;28;20531;-49
2021/12/19 05:49:10;;;;;;;6.40;4.47;;;-2.40;99.90;;;;;;5066048;28;20473;-49
2021/12/19 05:51:39;;;;;;;5.67;3.60;;;-2.20;99.90;;;;;;5062348;28;20499;-49
2021/12/19 05:54:09;;;;;;;5.57;3.50;;;-2.20;99.90;;;;;;5056380;28;20468;-49
2021/12/19 05:56:37;;;;;;;4.90;3.73;;;-2.20;99.90;;;;;;5062567;28;21008;-49
2021/12/19 05:59:04;;;;;;;5.60;4.00;;;-2.10;99.90;;;;;;5062184;28;20536;-49
2021/12/19 06:01:31;;;;;;;3.67;3.40;;;-2.00;99.90;;;;;;5055067;28;21098;-49
2021/12/19 06:03:58;;;;;;;3.33;2.30;;;-1.90;99.90;;;;;;5064525;28;20541;-48
2021/12/19 06:06:26;;;;;;;2.43;2.23;;;-1.90;99.90;;;;;;5066901;28;20551;-51
2021/12/19 06:08:53;;;;;;;2.80;1.97;;;-1.80;99.90;;;;;;5059399;28;20934;-50
2021/12/19 06:11:21;;;;;;;4.03;3.13;;;-1.70;99.90;;;;;;5063374;28;21039;-48
2021/12/19 06:13:48;;;;;;;4.47;3.43;;;-1.70;99.90;;;;;;5066107;28;20527;-49
2021/12/19 06:16:15;;;;;;;3.80;3.50;;;-1.80;99.90;;;;;;5059505;28;20451;-50
2021/12/19 06:18:42;;;;;;;3.93;2.70;;;-1.90;99.90;;;;;;5063842;28;20480;-49
2021/12/19 06:21:10;;;;;;;2.27;2.07;;;-1.90;99.90;;;;;;5063296;28;20551;-49
2021/12/19 06:23:39;;;;;;;3.33;2.93;;;-1.90;99.90;;;;;;5059243;28;20441;-48
2021/12/19 06:26:10;;;;;;;3.10;2.50;;;-2.00;99.90;;;;;;5030291;28;20452;-45
2021/12/19 06:28:38;;;;;;;2.77;2.50;;;-2.10;99.90;;;;;;5027783;28;20453;-47
2021/12/19 06:31:06;;;;;;;5.70;2.03;;;-2.20;99.90;;;;;;5031904;28;20568;-46
2021/12/19 06:33:33;;;;;;;2.67;2.33;;;-2.40;99.90;;;;;;5028330;28;21618;-48
2021/12/19 06:35:59;;;;;;;3.27;2.00;;;-2.40;99.90;;;;;;5053630;28;20531;-49
2021/12/19 06:38:26;;;;;;;5.10;3.30;;;-2.40;99.90;;;;;;5053917;28;20467;-50
2021/12/19 06:40:54;;;;;;;8.13;4.33;;;-2.20;99.90;;;;;;5059266;28;20552;-48
2021/12/19 06:43:21;;;;;;;6.63;3.77;;;-2.10;99.90;;;;;;5063015;28;20445;-51
2021/12/19 06:45:49;;;;;;;4.63;3.80;;;-2.00;99.90;;;;;;5052932;28;20479;-49
2021/12/19 06:48:16;;;;;;;7.97;5.13;;;-2.00;99.90;;;;;;5066505;28;20506;-49
2021/12/19 06:50:43;;;;;;;6.20;4.47;;;-1.90;99.90;;;;;;5064216;28;20586;-49
2021/12/19 06:53:10;;;;;;;8.47;5.30;;;-1.90;99.90;;;;;;5065506;28;20535;-49
2021/12/19 06:55:37;;;;;;;4.80;3.73;;;-2.20;99.90;;;;;;5060106;28;20603;-49
2021/12/19 06:58:04;;;;;;;4.17;3.70;;;-2.20;99.90;;;;;;5063909;28;20814;-49
2021/12/19 07:00:31;;;;;;;4.73;3.40;;;-2.40;99.90;;;;;;5062634;28;20488;-49
2021/12/19 07:03:00;;;;;;;3.63;3.20;;;-2.30;99.90;;;;;;5066985;28;20480;-49
2021/12/19 07:05:27;;;;;;;3.90;3.50;;;-2.30;99.90;;;;;;5066220;28;20540;-49
2021/12/19 07:07:54;;;;;;;2.57;2.37;;;-2.70;99.90;;;;;;5071300;28;20555;-51
2021/12/19 07:10:21;;;;;;;3.27;2.70;;;-2.90;99.90;;;;;;5059732;28;20563;-49
2021/12/19 07:12:48;;;;;;;5.30;3.20;;;-2.90;99.90;;;;;;5068339;28;20531;-49
2021/12/19 07:15:17;;;;;;;3.00;2.80;;;-2.80;99.90;;;;;;5071149;28;20444;-48
2021/12/19 07:17:44;;;;;;;3.30;3.00;;;-3.00;99.90;;;;;;5068776;28;20959;-49
2021/12/19 07:20:13;;;;;;;5.00;3.50;;;-3.00;99.90;;;;;;5068633;28;20877;-51
2021/12/19 07:22:40;;;;;;;5.03;4.63;;;-2.70;99.90;;;;;;5063664;28;20476;-49
2021/12/19 07:25:07;;;;;;;5.80;4.63;;;-2.60;99.90;;;;;;5063265;28;20438;-49
2021/12/19 07:27:34;;;;;;;3.70;3.40;;;-2.50;99.90;;;;;;5069334;28;20533;-50
2021/12/19 07:30:01;;;;;;;4.00;3.60;;;-2.50;99.90;;;;;;5071849;28;20503;-52
2021/12/19 07:32:28;;;;;;;3.37;3.07;;;-2.40;99.90;;;;;;5068521;28;20974;-49
2021/12/19 07:34:55;;;;;;;3.43;2.80;;;-2.40;99.90;;;;;;5064881;28;20785;-50
2021/12/19 07:37:24;;;;;;;5.80;5.20;;;-2.30;99.90;;;;;;5068295;28;20476;-51
2021/12/19 07:39:58;;;;;;;3.50;3.20;;;-2.30;99.90;;;;;;5063844;28;20441;-48
2021/12/19 07:42:25;;;;;;;5.20;4.70;;;-2.30;99.90;;;;;;5066540;28;20533;-48
2021/12/19 07:44:51;;;;;;;11.20;9.03;;;-2.20;99.90;;;;;;5069002;28;20445;-49
2021/12/19 07:47:18;;;;;;;10.67;9.60;;;-2.40;99.90;;;;;;5066680;28;20531;-49
2021/12/19 07:49:45;;;;;;;14.53;9.03;;;-2.40;99.90;;;;;;5068941;28;20558;-49
2021/12/19 07:52:12;;;;;;;9.87;8.90;;;-2.40;99.90;;;;;;5066856;28;20563;-49
2021/12/19 07:54:41;;;;;;;7.90;7.00;;;-2.30;99.90;;;;;;5067868;28;20540;-48
2021/12/19 07:57:08;;;;;;;5.97;4.70;;;-2.20;99.90;;;;;;5067554;28;20525;-49
2021/12/19 07:59:34;;;;;;;6.50;4.80;;;-2.10;99.90;;;;;;5065514;28;21015;-48
2021/12/19 08:02:02;;;;;;;3.70;3.40;;;-2.10;99.90;;;;;;5067291;28;20511;-50
2021/12/19 08:04:29;;;;;;;5.60;4.50;;;-2.10;99.90;;;;;;5067255;28;20972;-48
2021/12/19 08:06:57;;;;;;;5.33;4.80;;;-2.40;99.90;;;;;;5067370;28;20543;-49
2021/12/19 08:09:35;;;;;;;4.00;3.70;;;-2.50;99.90;;;;;;5064831;28;20914;-49
2021/12/19 08:12:04;;;;;;;5.97;4.17;;;-2.40;99.90;;;;;;5068544;28;20862;-49
2021/12/19 08:14:31;;;;;;;7.70;6.97;;;-2.40;99.90;;;;;;5067360;28;20941;-49
2021/12/19 08:16:58;;;;;;;7.60;5.40;;;-2.60;99.90;;;;;;5065825;28;20919;-51
2021/12/19 08:19:25;;;;;;;4.30;3.90;;;-2.50;99.90;;;;;;5065552;28;20539;-50
2021/12/19 08:21:53;;;;;;;3.30;3.10;;;-2.40;99.90;;;;;;5066428;28;20538;-49
2021/12/19 08:24:20;;;;;;;3.73;3.33;;;-2.30;99.90;;;;;;5069440;28;20452;-50
2021/12/19 08:26:47;;;;;;;5.20;3.37;;;-2.30;99.90;;;;;;5064912;28;20476;-49
2021/12/19 08:29:16;;;;;;;4.77;3.87;;;-2.50;99.90;;;;;;5067965;28;20483;-51
2021/12/19 08:31:43;;;;;;;4.20;3.70;;;-2.70;99.90;;;;;;5065893;28;20471;-49
2021/12/19 08:34:10;;;;;;;4.23;3.83;;;-2.60;99.90;;;;;;5063697;28;20468;-48
2021/12/19 08:36:37;;;;;;;6.70;6.03;;;-2.40;99.90;;;;;;5069305;28;20894;-48
2021/12/19 08:39:04;;;;;;;6.67;5.43;;;-2.20;99.90;;;;;;5063642;28;20515;-49
2021/12/19 08:41:31;;;;;;;6.00;5.20;;;-2.20;99.90;;;;;;5065553;28;20525;-48
2021/12/19 08:43:58;;;;;;;7.27;5.47;;;-2.00;99.90;;;;;;5067098;28;20527;-49
2021/12/19 08:46:28;;;;;;;7.43;6.37;;;-2.00;99.90;;;;;;5064888;28;20551;-48
2021/12/19 08:48:55;;;;;;;5.87;4.90;;;-2.00;99.90;;;;;;5065813;28;20453;-48
2021/12/19 08:51:22;;;;;;;5.00;4.50;;;-2.00;99.90;;;;;;5062661;28;20673;-48
2021/12/19 08:53:49;;;;;;;7.23;4.40;;;-2.00;99.90;;;;;;5067349;28;21011;-49
2021/12/19 08:56:16;;;;;;;8.10;4.77;;;-1.90;99.90;;;;;;5062522;28;20551;-48
2021/12/19 08:58:42;;;;;;;4.10;3.70;;;-1.90;99.90;;;;;;5063046;28;20531;-46
2021/12/19 09:01:10;;;;;;;8.90;6.63;;;-1.80;99.90;;;;;;5062694;28;20553;-49
2021/12/19 09:03:38;;;;;;;10.47;8.17;;;-1.80;99.90;;;;;;5063168;28;20483;-48
2021/12/19 09:06:06;;;;;;;10.43;6.37;;;-1.70;99.90;;;;;;5066545;28;20480;-49
2021/12/19 09:08:33;;;;;;;5.03;4.53;;;-1.90;99.90;;;;;;5064641;28;20455;-50
2021/12/19 09:11:00;;;;;;;6.20;5.00;;;-2.20;99.90;;;;;;5062906;28;20567;-49
2021/12/19 09:13:27;;;;;;;4.70;4.40;;;-2.10;99.90;;;;;;5064772;28;20552;-48
2021/12/19 09:15:54;;;;;;;6.73;5.90;;;-2.30;99.90;;;;;;5064126;28;20491;-51
2021/12/19 09:18:22;;;;;;;9.47;6.73;;;-2.10;99.90;;;;;;5061833;28;20478;-49
2021/12/19 09:20:50;;;;;;;8.30;6.37;;;-2.00;99.90;;;;;;5065199;28;20551;-50
2021/12/19 09:23:18;;;;;;;8.07;4.03;;;-1.90;99.90;;;;;;5065513;28;20528;-50
2021/12/19 09:25:45;;;;;;;18.23;11.80;;;-2.10;99.90;;;;;;5065560;28;20476;-49
2021/12/19 09:28:12;;;;;;;17.67;13.20;;;-1.90;99.90;;;;;;5062151;28;20520;-48
2021/12/19 09:30:39;;;;;;;14.40;12.33;;;-2.20;99.90;;;;;;5062483;28;21010;-49
2021/12/19 09:33:06;;;;;;;9.23;8.30;;;-2.30;99.90;;;;;;5055610;28;20887;-48
2021/12/19 09:35:34;;;;;;;6.27;5.63;;;-2.50;99.90;;;;;;5060081;28;20536;-49
2021/12/19 09:38:04;;;;;;;7.30;6.60;;;-2.60;99.90;;;;;;5066905;28;20457;-50
2021/12/19 09:40:37;;;;;;;6.67;6.07;;;-2.50;99.90;;;;;;5064984;28;20506;-49
2021/12/19 09:43:08;;;;;;;6.53;6.03;;;-2.30;99.90;;;;;;5062115;28;20438;-49
2021/12/19 09:45:36;;;;;;;6.80;5.20;;;-2.20;99.90;;;;;;5065993;28;20451;-50
2021/12/19 09:48:03;;;;;;;6.10;5.30;;;-2.00;99.90;;;;;;5061229;28;20535;-49
2021/12/19 09:50:31;;;;;;;9.00;6.87;;;-1.90;99.90;;;;;;5058026;28;20571;-49
2021/12/19 09:52:58;;;;;;;19.13;14.83;;;-1.80;99.90;;;;;;5060556;28;20457;-50
2021/12/19 09:55:26;;;;;;;13.20;10.57;;;-1.70;99.90;;;;;;5061493;28;20540;-49
2021/12/19 09:57:54;;;;;;;30.37;27.10;;;-1.70;99.90;;;;;;5066082;28;20532;-50
2021/12/19 10:00:22;;;;;;;9.80;8.47;;;-1.60;99.90;;;;;;5065341;28;20696;-49
2021/12/19 10:02:49;;;;;;;31.70;24.37;;;-1.60;99.90;;;;;;5066237;28;20957;-48
2021/12/19 10:05:19;;;;;;;13.87;11.80;;;-1.50;99.90;;;;;;5068467;28;20523;-51
2021/12/19 10:07:48;;;;;;;14.77;13.27;;;-1.50;99.90;;;;;;5062692;28;21024;-49
2021/12/19 10:10:24;;;;;;;15.93;12.87;;;-1.50;99.90;;;;;;5066385;28;20558;-48
2021/12/19 10:12:57;;;;;;;7.57;6.70;;;-1.40;99.90;;;;;;5064643;28;20473;-49
2021/12/19 10:15:30;;;;;;;25.10;17.40;;;-1.40;99.90;;;;;;5062323;28;20457;-50
2021/12/19 10:18:04;;;;;;;11.83;9.33;;;-1.40;99.90;;;;;;5065521;28;20440;-48
2021/12/19 10:20:50;;;;;;;13.80;8.87;;;-1.50;99.90;;;;;;5061835;28;20543;-49
2021/12/19 10:23:20;;;;;;;14.70;12.30;;;-1.60;99.90;;;;;;5060582;28;20468;-51
2021/12/19 10:25:59;;;;;;;13.87;12.47;;;-1.50;99.90;;;;;;5064512;28;20533;-49
2021/12/19 10:28:28;;;;;;;10.73;9.27;;;-1.50;99.90;;;;;;5065280;28;20478;-48
2021/12/19 10:30:57;;;;;;;11.77;9.40;;;-1.50;99.90;;;;;;5063628;28;20485;-49
2021/12/19 10:33:27;;;;;;;23.23;15.70;;;-1.60;99.90;;;;;;5064301;28;20479;-49
2021/12/19 10:35:57;;;;;;;61.07;54.83;;;-1.50;99.90;;;;;;5063860;28;20469;-48
2021/12/19 10:38:26;;;;;;;26.57;23.97;;;-1.40;99.90;;;;;;5063393;28;20935;-49
2021/12/19 10:40:55;;;;;;;12.70;11.47;;;-1.20;99.90;;;;;;5066458;28;20485;-50
2021/12/19 10:43:26;;;;;;;8.40;7.47;;;-1.10;99.90;;;;;;5062813;28;20492;-49
2021/12/19 10:45:58;;;;;;;6.50;5.90;;;-1.00;99.90;;;;;;5066632;28;20492;-49
2021/12/19 10:48:28;;;;;;;8.40;6.97;;;-0.90;99.90;;;;;;5064325;28;20522;-50
2021/12/19 10:51:02;;;;;;;10.43;9.40;;;-0.80;99.90;;;;;;5061476;28;21329;-50
2021/12/19 10:53:36;;;;;;;14.17;12.67;;;-0.80;99.90;;;;;;5064974;28;20532;-49
2021/12/19 10:56:07;;;;;;;13.97;12.53;;;-0.70;99.90;;;;;;5061112;28;20996;-50
2021/12/19 10:58:39;;;;;;;10.70;9.70;;;-0.60;99.90;;;;;;5066038;28;20445;-51
2021/12/19 11:01:14;;;;;;;17.43;13.80;;;-0.50;99.90;;;;;;5061625;28;20493;-50
2021/12/19 11:03:44;;;;;;;28.17;20.87;;;-0.40;99.90;;;;;;5062137;28;20457;-50
2021/12/19 11:06:17;;;;;;;22.50;18.20;;;-0.40;99.90;;;;;;5066015;28;20518;-50
2021/12/19 11:08:45;;;;;;;15.57;14.03;;;-0.50;99.90;;;;;;5061237;28;20500;-49
2021/12/19 11:11:29;;;;;;;12.30;9.10;;;-0.30;99.90;;;;;;5059994;28;20545;-50
2021/12/19 11:13:56;;;;;;;3.80;3.40;;;-0.20;99.90;;;;;;5063642;28;20817;-49
2021/12/19 11:16:24;;;;;;;2.83;2.63;;;-0.10;99.90;;;;;;5060911;28;20545;-51
2021/12/19 11:18:51;;;;;;;7.13;6.53;;;-0.10;99.90;;;;;;5061832;28;20880;-50
2021/12/19 11:21:19;;;;;;;8.23;7.50;;;-0.10;99.90;;;;;;5064504;28;20539;-50
2021/12/19 11:23:46;;;;;;;10.83;9.80;;;0.00;99.90;;;;;;5062052;28;20462;-49
2021/12/19 11:26:13;;;;;;;13.37;11.97;;;0.10;99.90;;;;;;5066192;28;21035;-49
2021/12/19 11:28:41;;;;;;;12.07;10.87;;;0.10;99.90;;;;;;5061724;28;20538;-49
2021/12/19 11:31:08;;;;;;;12.43;11.43;;;0.10;99.90;;;;;;5062287;28;20567;-49
2021/12/19 11:33:47;;;;;;;11.87;9.87;;;0.10;99.90;;;;;;5066018;28;20540;-50
2021/12/19 11:36:15;;;;;;;9.87;8.83;;;0.20;99.90;;;;;;5065947;28;20897;-49
2021/12/19 11:38:46;;;;;;;10.60;9.70;;;0.30;99.90;;;;;;5064308;28;21015;-49
2021/12/19 11:41:13;;;;;;;9.37;8.43;;;0.40;99.90;;;;;;5059456;28;20578;-50
2021/12/19 11:43:43;;;;;;;9.50;8.00;;;0.40;99.90;;;;;;5057626;28;20964;-50
2021/12/19 11:46:17;;;;;;;10.77;9.73;;;0.40;99.90;;;;;;5064450;28;20456;-50
2021/12/19 11:48:45;;;;;;;8.87;8.00;;;0.50;99.90;;;;;;5063900;28;20458;-49
2021/12/19 11:51:19;;;;;;;11.70;8.33;;;0.60;99.90;;;;;;5065829;28;20490;-49
2021/12/19 11:53:46;;;;;;;9.73;7.13;;;0.60;99.90;;;;;;5057668;28;20532;-50
2021/12/19 11:56:16;;;;;;;7.57;6.50;;;0.60;99.90;;;;;;5065669;28;20892;-50
2021/12/19 11:58:45;;;;;;;6.70;6.10;;;0.70;99.90;;;;;;5065867;28;20547;-50
2021/12/19 12:01:15;;;;;;;11.10;6.73;;;0.70;99.90;;;;;;5062421;28;20561;-51
2021/12/19 12:03:49;;;;;;;8.03;7.40;;;0.60;99.90;;;;;;5067336;28;21183;-49
2021/12/19 12:06:40;;;;;;;10.63;9.23;;;0.50;99.90;;;;;;5066757;28;20961;-50
2021/12/19 12:09:24;;;;;;;15.13;11.57;;;0.50;99.90;;;;;;5060278;28;20856;-50
2021/12/19 12:12:12;;;;;;;9.13;8.20;;;0.50;99.90;;;;;;5061984;28;20876;-52
2021/12/19 12:14:43;;;;;;;9.77;8.50;;;0.60;99.90;;;;;;5064758;28;20853;-50
2021/12/19 12:17:16;;;;;;;9.93;8.60;;;0.70;99.90;;;;;;5065226;28;20457;-49
2021/12/19 12:19:47;;;;;;;13.10;9.33;;;0.60;99.90;;;;;;5061308;28;20462;-51
2021/12/19 12:22:40;;;;;;;12.90;8.70;;;0.60;99.90;;;;;;5067993;28;20453;-50
2021/12/19 12:25:19;;;;;;;11.37;9.27;;;0.70;99.90;;;;;;5061809;28;20955;-50
2021/12/19 12:27:50;;;;;;;8.80;7.90;;;0.60;99.90;;;;;;5069477;28;20458;-50
2021/12/19 12:30:19;;;;;;;12.23;8.77;;;0.70;99.90;;;;;;5055897;28;20511;-49
2021/12/19 12:32:47;;;;;;;11.00;9.30;;;0.70;99.90;;;;;;5061085;28;20535;-49
2021/12/19 12:35:16;;;;;;;12.50;10.07;;;0.70;99.90;;;;;;5062767;28;20532;-49
2021/12/19 12:37:44;;;;;;;11.63;10.53;;;0.80;99.90;;;;;;5056618;28;20520;-49
2021/12/19 12:40:28;;;;;;;18.10;11.10;;;0.90;99.90;;;;;;5067168;28;20552;-50
2021/12/19 12:43:08;;;;;;;13.27;11.87;;;1.00;99.90;;;;;;5068232;28;20439;-47
2021/12/19 12:45:56;;;;;;;12.63;9.30;;;1.10;99.90;;;;;;5056816;28;20447;-50
2021/12/19 12:48:42;;;;;;;11.10;8.53;;;1.10;99.90;;;;;;5057446;28;20992;-51
2021/12/19 12:51:12;;;;;;;11.90;8.27;;;1.10;99.90;;;;;;5063410;28;20576;-50
2021/12/19 12:53:42;;;;;;;8.40;7.63;;;1.20;99.90;;;;;;5062115;28;21028;-49
2021/12/19 12:56:13;;;;;;;9.70;7.70;;;1.20;99.90;;;;;;5063013;28;20498;-50
2021/12/19 12:58:43;;;;;;;10.43;9.27;;;1.30;99.90;;;;;;5066393;28;20505;-49
2021/12/19 13:01:22;;;;;;;12.10;10.90;;;1.30;99.90;;;;;;5062084;28;20525;-50
2021/12/19 13:04:02;;;;;;;9.57;7.93;;;1.30;99.90;;;;;;5062145;28;20456;-50
2021/12/19 13:06:57;;;;;;;8.13;7.33;;;1.10;99.90;;;;;;5066742;28;20546;-49
2021/12/19 13:09:27;;;;;;;8.90;6.87;;;1.00;99.90;;;;;;5067153;28;20878;-50
2021/12/19 13:12:00;;;;;;;8.47;6.93;;;1.10;99.90;;;;;;5067565;28;21088;-49
2021/12/19 13:14:29;;;;;;;11.40;8.47;;;1.20;99.90;;;;;;5062012;28;20886;-47
2021/12/19 13:16:59;;;;;;;8.23;7.43;;;1.20;99.90;;;;;;5066580;28;20476;-50
2021/12/19 13:19:45;;;;;;;12.97;8.23;;;1.30;99.90;;;;;;5064147;28;21015;-49
2021/12/19 13:22:16;;;;;;;8.20;7.30;;;1.40;99.90;;;;;;5057158;28;20433;-49
2021/12/19 13:24:44;;;;;;;8.40;7.10;;;1.40;99.90;;;;;;5063476;28;20506;-51
2021/12/19 13:27:16;;;;;;;10.33;7.33;;;1.40;99.90;;;;;;5068172;28;20958;-50
2021/12/19 13:29:56;;;;;;;7.00;5.07;;;1.40;99.90;;;;;;5065512;28;20938;-49
2021/12/19 13:32:27;;;;;;;7.13;6.43;;;1.40;99.90;;;;;;5061723;28;20491;-50
2021/12/19 13:34:55;;;;;;;7.43;6.70;;;1.40;99.90;;;;;;5067415;28;20451;-49
2021/12/19 13:37:24;;;;;;;6.80;6.10;;;1.30;99.90;;;;;;5068958;28;20543;-49
2021/12/19 13:40:03;;;;;;;7.40;6.43;;;0.90;99.90;;;;;;5059333;28;20888;-50
2021/12/19 13:42:51;;;;;;;8.53;7.20;;;1.00;99.90;;;;;;5066486;28;20947;-49
2021/12/19 13:45:43;;;;;;;8.10;6.93;;;1.10;99.90;;;;;;5063321;28;20486;-49
2021/12/19 13:48:25;;;;;;;9.70;8.17;;;1.20;99.90;;;;;;5066174;28;20889;-49
2021/12/19 13:50:56;;;;;;;8.57;7.63;;;1.30;99.90;;;;;;5065940;28;20474;-50
2021/12/19 13:53:26;;;;;;;9.17;8.03;;;1.40;99.90;;;;;;5062843;28;20528;-50